sensor_id;sensor_type;location;lat;lon;timestamp;temperature;humidity
3770;DHT22;1900;48.890;9.190;2024-03-23T00:55:40;15.40;52.50
3770;DHT22;1900;48.890;9.190;2024-03-23T00:58:06;15.30;52.40
3770;DHT22;1900;48.890;9.190;2024-03-23T01:00:32;15.30;52.40
3770;DHT22;1900;48.890;9.190;2024-03-23T01:02:58;15.30;52.40
3770;DHT22;1900;48.890;9.190;2024-03-23T01:05:23;15.20;52.40
3770;DHT22;1900;48.890;9.190;2024-03-23T01:07:49;15.20;53.00
3770;DHT22;1900;48.890;9.190;2024-03-23T01:10:15;15.10;52.30
3770;DHT22;1900;48.890;9.190;2024-03-23T01:12:41;15.10;52.30
3770;DHT22;1900;48.890;9.190;2024-03-23T01:15:07;15.10;52.30
3770;DHT22;1900;48.890;9.190;2024-03-23T01:17:32;15.00;52.30
3770;DHT22;1900;48.890;9.190;2024-03-23T01:19:58;15.00;52.40
3770;DHT22;1900;48.890;9.190;2024-03-23T01:22:24;15.00;52.50
3770;DHT22;1900;48.890;9.190;2024-03-23T01:24:49;15.00;52.50
3770;DHT22;1900;48.890;9.190;2024-03-23T01:27:15;15.00;52.70
3770;DHT22;1900;48.890;9.190;2024-03-23T01:29:41;15.00;52.80
3770;DHT22;1900;48.890;9.190;2024-03-23T01:32:06;15.00;52.80
3770;DHT22;1900;48.890;9.190;2024-03-23T01:34:33;15.00;52.90
3770;DHT22;1900;48.890;9.190;2024-03-23T01:36:59;15.00;53.00
3770;DHT22;1900;48.890;9.190;2024-03-23T01:39:25;15.10;53.10
3770;DHT22;1900;48.890;9.190;2024-03-23T01:41:50;15.10;53.00
3770;DHT22;1900;48.890;9.190;2024-03-23T01:44:17;15.10;53.00
3770;DHT22;1900;48.890;9.190;2024-03-23T01:46:43;15.10;52.90
3770;DHT22;1900;48.890;9.190;2024-03-23T01:49:09;15.10;52.90
3770;DHT22;1900;48.890;9.190;2024-03-23T01:51:36;15.10;52.80
3770;DHT22;1900;48.890;9.190;2024-03-23T01:54:03;15.10;52.80
3770;DHT22;1900;48.890;9.190;2024-03-23T01:56:33;15.00;52.70
3770;DHT22;1900;48.890;9.190;2024-03-23T01:59:19;15.00;52.70
3770;DHT22;1900;48.890;9.190;2024-03-23T02:01:45;15.00;52.70
3770;DHT22;1900;48.890;9.190;2024-03-23T02:04:12;15.00;52.70
3770;DHT22;1900;48.890;9.190;2024-03-23T02:06:38;15.00;52.80
3770;DHT22;1900;48.890;9.190;2024-03-23T02:09:04;15.00;52.90
3770;DHT22;1900;48.890;9.190;2024-03-23T02:11:31;15.00;53.10
3770;DHT22;1900;48.890;9.190;2024-03-23T02:13:56;15.00;53.20
3770;DHT22;1900;48.890;9.190;2024-03-23T02:16:22;15.00;53.30
3770;DHT22;1900;48.890;9.190;2024-03-23T02:18:48;15.10;53.60
3770;DHT22;1900;48.890;9.190;2024-03-23T02:21:15;15.10;53.70
3770;DHT22;1900;48.890;9.190;2024-03-23T02:23:40;15.10;53.80
3770;DHT22;1900;48.890;9.190;2024-03-23T02:26:06;15.20;53.90
3770;DHT22;1900;48.890;9.190;2024-03-23T02:28:32;15.20;54.00
3770;DHT22;1900;48.890;9.190;2024-03-23T02:30:58;15.30;54.10
3770;DHT22;1900;48.890;9.190;2024-03-23T02:33:25;15.30;54.10
3770;DHT22;1900;48.890;9.190;2024-03-23T02:35:56;15.40;54.20
3770;DHT22;1900;48.890;9.190;2024-03-23T02:38:21;15.40;54.20
3770;DHT22;1900;48.890;9.190;2024-03-23T02:40:47;15.50;54.20
3770;DHT22;1900;48.890;9.190;2024-03-23T02:43:13;15.50;54.20
3770;DHT22;1900;48.890;9.190;2024-03-23T02:45:39;15.60;54.30
3770;DHT22;1900;48.890;9.190;2024-03-23T02:48:04;15.60;54.30
3770;DHT22;1900;48.890;9.190;2024-03-23T02:50:30;15.60;54.30
3770;DHT22;1900;48.890;9.190;2024-03-23T02:52:57;15.70;54.30
3770;DHT22;1900;48.890;9.190;2024-03-23T02:55:23;15.70;54.30
3770;DHT22;1900;48.890;9.190;2024-03-23T02:57:49;15.70;54.20
3770;DHT22;1900;48.890;9.190;2024-03-23T03:00:14;15.70;54.20
3770;DHT22;1900;48.890;9.190;2024-03-23T03:02:40;15.70;54.20
3770;DHT22;1900;48.890;9.190;2024-03-23T03:05:06;15.80;54.30
3770;DHT22;1900;48.890;9.190;2024-03-23T03:07:34;15.80;54.30
3770;DHT22;1900;48.890;9.190;2024-03-23T03:09:59;15.80;54.40
3770;DHT22;1900;48.890;9.190;2024-03-23T03:12:25;15.80;54.30
3770;DHT22;1900;48.890;9.190;2024-03-23T03:14:51;15.90;54.40
3770;DHT22;1900;48.890;9.190;2024-03-23T03:17:17;15.90;54.40
3770;DHT22;1900;48.890;9.190;2024-03-23T03:19:42;15.90;54.40
3770;DHT22;1900;48.890;9.190;2024-03-23T03:22:08;15.90;54.40
3770;DHT22;1900;48.890;9.190;2024-03-23T03:24:34;15.90;54.30
3770;DHT22;1900;48.890;9.190;2024-03-23T03:26:59;15.90;54.30
3770;DHT22;1900;48.890;9.190;2024-03-23T03:29:25;15.90;54.30
3770;DHT22;1900;48.890;9.190;2024-03-23T03:31:51;15.90;54.30
3770;DHT22;1900;48.890;9.190;2024-03-23T03:34:16;15.90;54.20
3770;DHT22;1900;48.890;9.190;2024-03-23T03:36:42;15.90;54.10
3770;DHT22;1900;48.890;9.190;2024-03-23T03:39:08;15.90;54.10
3770;DHT22;1900;48.890;9.190;2024-03-23T03:41:33;15.90;54.00
3770;DHT22;1900;48.890;9.190;2024-03-23T03:43:59;15.90;54.00
3770;DHT22;1900;48.890;9.190;2024-03-23T03:46:28;15.90;54.00
3770;DHT22;1900;48.890;9.190;2024-03-23T03:48:54;15.90;54.00
3770;DHT22;1900;48.890;9.190;2024-03-23T03:51:20;15.90;53.90
3770;DHT22;1900;48.890;9.190;2024-03-23T03:53:46;15.80;53.80
3770;DHT22;1900;48.890;9.190;2024-03-23T03:56:12;15.80;53.80
3770;DHT22;1900;48.890;9.190;2024-03-23T03:58:37;15.80;53.80
3770;DHT22;1900;48.890;9.190;2024-03-23T04:01:03;15.80;53.80
3770;DHT22;1900;48.890;9.190;2024-03-23T04:03:29;15.70;53.80
3770;DHT22;1900;48.890;9.190;2024-03-23T04:05:55;15.70;53.80
3770;DHT22;1900;48.890;9.190;2024-03-23T04:08:21;15.70;53.80
3770;DHT22;1900;48.890;9.190;2024-03-23T04:10:47;15.70;53.80
3770;DHT22;1900;48.890;9.190;2024-03-23T04:13:13;15.70;53.80
3770;DHT22;1900;48.890;9.190;2024-03-23T04:15:39;15.70;53.80
3770;DHT22;1900;48.890;9.190;2024-03-23T04:18:05;15.70;53.80
3770;DHT22;1900;48.890;9.190;2024-03-23T04:20:31;15.60;53.80
3770;DHT22;1900;48.890;9.190;2024-03-23T04:23:00;15.60;54.30
3770;DHT22;1900;48.890;9.190;2024-03-23T04:25:26;15.60;53.80
3770;DHT22;1900;48.890;9.190;2024-03-23T04:27:52;15.60;53.70
3770;DHT22;1900;48.890;9.190;2024-03-23T04:30:18;15.60;53.80
3770;DHT22;1900;48.890;9.190;2024-03-23T04:32:44;15.60;53.90
3770;DHT22;1900;48.890;9.190;2024-03-23T04:35:10;15.50;54.00
3770;DHT22;1900;48.890;9.190;2024-03-23T04:37:39;15.50;53.90
3770;DHT22;1900;48.890;9.190;2024-03-23T04:40:08;15.50;54.00
3770;DHT22;1900;48.890;9.190;2024-03-23T04:42:34;15.50;54.10
3770;DHT22;1900;48.890;9.190;2024-03-23T04:45:00;15.50;54.40
3770;DHT22;1900;48.890;9.190;2024-03-23T04:47:26;15.50;54.30
3770;DHT22;1900;48.890;9.190;2024-03-23T04:49:52;15.50;54.20
3770;DHT22;1900;48.890;9.190;2024-03-23T04:52:18;15.50;54.40
3770;DHT22;1900;48.890;9.190;2024-03-23T04:54:44;15.40;54.20
3770;DHT22;1900;48.890;9.190;2024-03-23T04:57:11;15.40;54.30
3770;DHT22;1900;48.890;9.190;2024-03-23T04:59:37;15.40;54.50
3770;DHT22;1900;48.890;9.190;2024-03-23T05:02:02;15.40;54.70
3770;DHT22;1900;48.890;9.190;2024-03-23T05:04:38;15.30;54.40
3770;DHT22;1900;48.890;9.190;2024-03-23T05:07:06;15.30;54.60
3770;DHT22;1900;48.890;9.190;2024-03-23T05:09:32;15.30;54.80
3770;DHT22;1900;48.890;9.190;2024-03-23T05:11:59;15.30;54.70
3770;DHT22;1900;48.890;9.190;2024-03-23T05:14:26;15.20;54.70
3770;DHT22;1900;48.890;9.190;2024-03-23T05:16:53;15.20;54.60
3770;DHT22;1900;48.890;9.190;2024-03-23T05:19:18;15.20;54.80
3770;DHT22;1900;48.890;9.190;2024-03-23T05:21:44;15.20;54.80
3770;DHT22;1900;48.890;9.190;2024-03-23T05:24:11;15.20;54.80
3770;DHT22;1900;48.890;9.190;2024-03-23T05:26:37;15.10;54.80
3770;DHT22;1900;48.890;9.190;2024-03-23T05:29:03;15.20;54.90
3770;DHT22;1900;48.890;9.190;2024-03-23T05:31:30;15.20;54.90
3770;DHT22;1900;48.890;9.190;2024-03-23T05:33:56;15.10;54.80
3770;DHT22;1900;48.890;9.190;2024-03-23T05:36:22;15.10;54.80
3770;DHT22;1900;48.890;9.190;2024-03-23T05:38:50;15.10;55.10
3770;DHT22;1900;48.890;9.190;2024-03-23T05:41:15;15.10;55.20
3770;DHT22;1900;48.890;9.190;2024-03-23T05:43:41;15.00;54.90
3770;DHT22;1900;48.890;9.190;2024-03-23T05:46:07;15.00;54.80
3770;DHT22;1900;48.890;9.190;2024-03-23T05:48:36;14.90;55.10
3770;DHT22;1900;48.890;9.190;2024-03-23T05:51:02;14.90;54.80
3770;DHT22;1900;48.890;9.190;2024-03-23T05:53:28;14.80;54.80
3770;DHT22;1900;48.890;9.190;2024-03-23T05:56:02;14.80;54.80
3770;DHT22;1900;48.890;9.190;2024-03-23T05:58:32;14.80;54.90
3770;DHT22;1900;48.890;9.190;2024-03-23T06:00:59;14.80;54.80
3770;DHT22;1900;48.890;9.190;2024-03-23T06:03:28;14.70;54.90
3770;DHT22;1900;48.890;9.190;2024-03-23T06:05:54;14.70;54.70
3770;DHT22;1900;48.890;9.190;2024-03-23T06:08:20;14.70;54.80
3770;DHT22;1900;48.890;9.190;2024-03-23T06:10:47;14.60;54.70
3770;DHT22;1900;48.890;9.190;2024-03-23T06:13:13;14.50;54.70
3770;DHT22;1900;48.890;9.190;2024-03-23T06:15:39;14.60;54.60
3770;DHT22;1900;48.890;9.190;2024-03-23T06:18:05;14.50;54.60
3770;DHT22;1900;48.890;9.190;2024-03-23T06:20:33;14.50;54.60
3770;DHT22;1900;48.890;9.190;2024-03-23T06:23:01;14.50;55.00
3770;DHT22;1900;48.890;9.190;2024-03-23T06:25:27;14.40;54.70
3770;DHT22;1900;48.890;9.190;2024-03-23T06:27:53;14.40;54.60
3770;DHT22;1900;48.890;9.190;2024-03-23T06:30:19;14.40;54.70
3770;DHT22;1900;48.890;9.190;2024-03-23T06:32:44;14.40;54.80
3770;DHT22;1900;48.890;9.190;2024-03-23T06:35:10;14.30;54.80
3770;DHT22;1900;48.890;9.190;2024-03-23T06:37:36;14.30;54.70
3770;DHT22;1900;48.890;9.190;2024-03-23T06:40:02;14.20;54.50
3770;DHT22;1900;48.890;9.190;2024-03-23T06:42:30;14.30;54.80
3770;DHT22;1900;48.890;9.190;2024-03-23T06:44:56;14.30;54.90
3770;DHT22;1900;48.890;9.190;2024-03-23T06:47:21;14.20;54.90
3770;DHT22;1900;48.890;9.190;2024-03-23T06:49:47;14.20;54.60
3770;DHT22;1900;48.890;9.190;2024-03-23T06:52:12;14.10;54.50
3770;DHT22;1900;48.890;9.190;2024-03-23T06:54:38;14.10;54.50
3770;DHT22;1900;48.890;9.190;2024-03-23T06:57:04;14.10;54.60
3770;DHT22;1900;48.890;9.190;2024-03-23T06:59:30;14.10;54.70
3770;DHT22;1900;48.890;9.190;2024-03-23T07:01:55;14.10;54.60
3770;DHT22;1900;48.890;9.190;2024-03-23T07:04:21;14.00;54.60
3770;DHT22;1900;48.890;9.190;2024-03-23T07:06:47;14.00;54.40
3770;DHT22;1900;48.890;9.190;2024-03-23T07:09:13;14.00;54.60
3770;DHT22;1900;48.890;9.190;2024-03-23T07:11:38;13.90;54.40
3770;DHT22;1900;48.890;9.190;2024-03-23T07:14:04;13.80;54.30
3770;DHT22;1900;48.890;9.190;2024-03-23T07:16:30;13.80;54.30
3770;DHT22;1900;48.890;9.190;2024-03-23T07:18:56;13.80;54.60
3770;DHT22;1900;48.890;9.190;2024-03-23T07:21:22;13.80;54.50
3770;DHT22;1900;48.890;9.190;2024-03-23T07:23:48;13.80;54.60
3770;DHT22;1900;48.890;9.190;2024-03-23T07:26:14;13.70;54.50
3770;DHT22;1900;48.890;9.190;2024-03-23T07:28:40;13.70;54.80
3770;DHT22;1900;48.890;9.190;2024-03-23T07:31:13;13.70;54.70
3770;DHT22;1900;48.890;9.190;2024-03-23T07:33:44;13.70;54.70
3770;DHT22;1900;48.890;9.190;2024-03-23T07:36:10;13.70;54.80
3770;DHT22;1900;48.890;9.190;2024-03-23T07:38:36;13.70;54.80
3770;DHT22;1900;48.890;9.190;2024-03-23T07:41:15;13.70;54.90
3770;DHT22;1900;48.890;9.190;2024-03-23T07:43:46;13.60;54.80
3770;DHT22;1900;48.890;9.190;2024-03-23T07:46:13;13.70;55.10
3770;DHT22;1900;48.890;9.190;2024-03-23T07:48:39;13.60;54.70
3770;DHT22;1900;48.890;9.190;2024-03-23T07:51:10;13.60;54.80
3770;DHT22;1900;48.890;9.190;2024-03-23T07:53:37;13.50;55.20
3770;DHT22;1900;48.890;9.190;2024-03-23T07:56:06;13.60;54.80
3770;DHT22;1900;48.890;9.190;2024-03-23T07:58:33;13.50;54.70
3770;DHT22;1900;48.890;9.190;2024-03-23T08:01:12;13.50;54.90
3770;DHT22;1900;48.890;9.190;2024-03-23T08:03:42;13.40;54.60
3770;DHT22;1900;48.890;9.190;2024-03-23T08:06:18;13.40;54.70
3770;DHT22;1900;48.890;9.190;2024-03-23T08:08:52;13.40;54.80
3770;DHT22;1900;48.890;9.190;2024-03-23T08:11:32;13.30;54.90
3770;DHT22;1900;48.890;9.190;2024-03-23T08:14:00;13.30;54.60
3770;DHT22;1900;48.890;9.190;2024-03-23T08:16:27;13.30;55.00
3770;DHT22;1900;48.890;9.190;2024-03-23T08:18:53;13.30;55.00
3770;DHT22;1900;48.890;9.190;2024-03-23T08:21:20;13.30;55.10
3770;DHT22;1900;48.890;9.190;2024-03-23T08:23:46;13.30;55.60
3770;DHT22;1900;48.890;9.190;2024-03-23T08:26:15;13.20;55.10
3770;DHT22;1900;48.890;9.190;2024-03-23T08:28:40;13.20;55.10
3770;DHT22;1900;48.890;9.190;2024-03-23T08:31:12;13.10;54.80
3770;DHT22;1900;48.890;9.190;2024-03-23T08:33:38;13.10;55.20
3770;DHT22;1900;48.890;9.190;2024-03-23T08:36:05;13.00;55.30
3770;DHT22;1900;48.890;9.190;2024-03-23T08:38:31;13.00;55.10
3770;DHT22;1900;48.890;9.190;2024-03-23T08:43:26;13.00;55.90
3770;DHT22;1900;48.890;9.190;2024-03-23T08:45:53;13.00;55.80
3770;DHT22;1900;48.890;9.190;2024-03-23T08:48:19;12.90;55.50
3770;DHT22;1900;48.890;9.190;2024-03-23T08:51:01;12.90;55.50
3770;DHT22;1900;48.890;9.190;2024-03-23T08:53:28;13.00;55.70
3770;DHT22;1900;48.890;9.190;2024-03-23T08:55:59;12.90;55.60
3770;DHT22;1900;48.890;9.190;2024-03-23T08:58:27;13.00;55.70
3770;DHT22;1900;48.890;9.190;2024-03-23T09:00:54;13.00;55.60
3770;DHT22;1900;48.890;9.190;2024-03-23T09:03:22;12.90;55.60
3770;DHT22;1900;48.890;9.190;2024-03-23T09:05:48;13.00;55.50
3770;DHT22;1900;48.890;9.190;2024-03-23T09:08:14;13.00;55.60
3770;DHT22;1900;48.890;9.190;2024-03-23T09:10:41;13.00;55.90
3770;DHT22;1900;48.890;9.190;2024-03-23T09:13:07;13.00;56.10
3770;DHT22;1900;48.890;9.190;2024-03-23T09:15:35;13.10;56.20
3770;DHT22;1900;48.890;9.190;2024-03-23T09:18:01;13.10;56.30
3770;DHT22;1900;48.890;9.190;2024-03-23T09:20:27;13.10;56.10
3770;DHT22;1900;48.890;9.190;2024-03-23T09:22:56;13.10;55.90
3770;DHT22;1900;48.890;9.190;2024-03-23T09:25:21;13.20;56.20
3770;DHT22;1900;48.890;9.190;2024-03-23T09:27:47;13.20;56.00
3770;DHT22;1900;48.890;9.190;2024-03-23T09:30:13;13.20;55.90
3770;DHT22;1900;48.890;9.190;2024-03-23T09:32:42;13.20;55.60
3770;DHT22;1900;48.890;9.190;2024-03-23T09:35:07;13.20;55.50
3770;DHT22;1900;48.890;9.190;2024-03-23T09:37:33;13.20;55.30
3770;DHT22;1900;48.890;9.190;2024-03-23T09:39:59;13.20;55.20
3770;DHT22;1900;48.890;9.190;2024-03-23T09:42:24;13.20;55.10
3770;DHT22;1900;48.890;9.190;2024-03-23T09:44:51;13.20;55.20
3770;DHT22;1900;48.890;9.190;2024-03-23T09:47:20;13.20;55.30
3770;DHT22;1900;48.890;9.190;2024-03-23T09:49:46;13.30;55.60
3770;DHT22;1900;48.890;9.190;2024-03-23T09:52:12;13.30;55.70
3770;DHT22;1900;48.890;9.190;2024-03-23T09:54:37;13.40;55.90
3770;DHT22;1900;48.890;9.190;2024-03-23T09:57:03;13.50;56.20
3770;DHT22;1900;48.890;9.190;2024-03-23T09:59:29;13.50;56.30
3770;DHT22;1900;48.890;9.190;2024-03-23T10:01:55;13.60;56.10
3770;DHT22;1900;48.890;9.190;2024-03-23T10:04:41;13.70;56.10
3770;DHT22;1900;48.890;9.190;2024-03-23T10:07:20;13.80;56.20
3770;DHT22;1900;48.890;9.190;2024-03-23T10:09:47;13.80;56.10
3770;DHT22;1900;48.890;9.190;2024-03-23T10:12:15;13.90;55.90
3770;DHT22;1900;48.890;9.190;2024-03-23T10:14:41;13.90;55.30
3770;DHT22;1900;48.890;9.190;2024-03-23T10:17:28;13.90;55.10
3770;DHT22;1900;48.890;9.190;2024-03-23T10:19:56;13.90;54.80
3770;DHT22;1900;48.890;9.190;2024-03-23T10:22:23;13.90;54.80
3770;DHT22;1900;48.890;9.190;2024-03-23T10:24:52;13.80;54.60
3770;DHT22;1900;48.890;9.190;2024-03-23T10:27:20;13.80;54.40
3770;DHT22;1900;48.890;9.190;2024-03-23T10:29:49;13.80;54.40
3770;DHT22;1900;48.890;9.190;2024-03-23T10:32:17;13.70;54.30
3770;DHT22;1900;48.890;9.190;2024-03-23T10:34:44;13.70;54.40
3770;DHT22;1900;48.890;9.190;2024-03-23T10:37:10;13.80;54.70
3770;DHT22;1900;48.890;9.190;2024-03-23T10:39:40;13.70;54.70
3770;DHT22;1900;48.890;9.190;2024-03-23T10:42:08;13.70;54.70
3770;DHT22;1900;48.890;9.190;2024-03-23T10:44:34;13.80;54.90
3770;DHT22;1900;48.890;9.190;2024-03-23T10:47:04;13.80;55.00
3770;DHT22;1900;48.890;9.190;2024-03-23T10:49:35;13.70;54.80
3770;DHT22;1900;48.890;9.190;2024-03-23T10:52:03;13.70;54.60
3770;DHT22;1900;48.890;9.190;2024-03-23T10:54:33;13.70;54.40
3770;DHT22;1900;48.890;9.190;2024-03-23T10:57:05;13.70;54.30
3770;DHT22;1900;48.890;9.190;2024-03-23T10:59:33;13.60;53.80
3770;DHT22;1900;48.890;9.190;2024-03-23T11:02:00;13.50;53.70
3770;DHT22;1900;48.890;9.190;2024-03-23T11:04:38;13.40;53.50
3770;DHT22;1900;48.890;9.190;2024-03-23T11:09:52;13.10;53.10
3770;DHT22;1900;48.890;9.190;2024-03-23T11:14:51;13.00;53.40
3770;DHT22;1900;48.890;9.190;2024-03-23T11:17:24;12.90;53.30
3770;DHT22;1900;48.890;9.190;2024-03-23T11:19:54;12.80;53.40
3770;DHT22;1900;48.890;9.190;2024-03-23T11:25:08;12.80;53.80
3770;DHT22;1900;48.890;9.190;2024-03-23T11:27:37;12.80;53.70
3770;DHT22;1900;48.890;9.190;2024-03-23T11:30:16;12.80;53.80
3770;DHT22;1900;48.890;9.190;2024-03-23T11:32:44;12.80;53.90
3770;DHT22;1900;48.890;9.190;2024-03-23T11:35:10;12.80;53.90
3770;DHT22;1900;48.890;9.190;2024-03-23T11:37:38;12.80;54.20
3770;DHT22;1900;48.890;9.190;2024-03-23T11:40:20;12.80;54.40
3770;DHT22;1900;48.890;9.190;2024-03-23T11:42:46;12.90;54.60
3770;DHT22;1900;48.890;9.190;2024-03-23T11:45:12;12.90;54.80
3770;DHT22;1900;48.890;9.190;2024-03-23T11:47:38;13.00;54.90
3770;DHT22;1900;48.890;9.190;2024-03-23T11:50:03;13.00;54.80
3770;DHT22;1900;48.890;9.190;2024-03-23T11:52:29;13.10;54.90
3770;DHT22;1900;48.890;9.190;2024-03-23T11:55:05;13.10;54.80
3770;DHT22;1900;48.890;9.190;2024-03-23T11:57:33;13.10;54.80
3770;DHT22;1900;48.890;9.190;2024-03-23T11:59:59;13.20;54.90
3770;DHT22;1900;48.890;9.190;2024-03-23T12:02:25;13.20;54.90
3770;DHT22;1900;48.890;9.190;2024-03-23T12:04:50;13.30;55.00
3770;DHT22;1900;48.890;9.190;2024-03-23T12:07:19;13.30;54.90
3770;DHT22;1900;48.890;9.190;2024-03-23T12:10:08;13.30;54.90
3770;DHT22;1900;48.890;9.190;2024-03-23T12:12:32;13.30;54.90
3770;DHT22;1900;48.890;9.190;2024-03-23T12:15:06;13.40;54.70
3770;DHT22;1900;48.890;9.190;2024-03-23T12:17:32;13.30;54.40
3770;DHT22;1900;48.890;9.190;2024-03-23T12:19:58;13.30;54.10
3770;DHT22;1900;48.890;9.190;2024-03-23T12:22:24;13.30;54.00
3770;DHT22;1900;48.890;9.190;2024-03-23T12:24:50;13.30;54.10
3770;DHT22;1900;48.890;9.190;2024-03-23T12:27:16;13.30;54.20
3770;DHT22;1900;48.890;9.190;2024-03-23T12:29:42;13.30;54.60
3770;DHT22;1900;48.890;9.190;2024-03-23T12:32:15;13.40;54.90
3770;DHT22;1900;48.890;9.190;2024-03-23T12:34:42;13.50;55.10
3770;DHT22;1900;48.890;9.190;2024-03-23T12:37:08;13.50;54.90
3770;DHT22;1900;48.890;9.190;2024-03-23T12:39:34;13.60;55.50
3770;DHT22;1900;48.890;9.190;2024-03-23T12:42:01;13.60;54.80
3770;DHT22;1900;48.890;9.190;2024-03-23T12:44:28;13.60;54.80
3770;DHT22;1900;48.890;9.190;2024-03-23T12:46:54;13.70;54.90
3770;DHT22;1900;48.890;9.190;2024-03-23T12:49:20;13.80;55.30
3770;DHT22;1900;48.890;9.190;2024-03-23T12:51:54;13.80;55.40
3770;DHT22;1900;48.890;9.190;2024-03-23T12:54:21;13.90;55.60
3770;DHT22;1900;48.890;9.190;2024-03-23T12:56:47;14.10;55.90
3770;DHT22;1900;48.890;9.190;2024-03-23T12:59:13;14.20;56.70
3770;DHT22;1900;48.890;9.190;2024-03-23T13:01:39;14.40;56.60
3770;DHT22;1900;48.890;9.190;2024-03-23T13:04:06;14.50;57.00
3770;DHT22;1900;48.890;9.190;2024-03-23T13:06:31;14.70;57.30
3770;DHT22;1900;48.890;9.190;2024-03-23T13:09:00;15.00;57.70
3770;DHT22;1900;48.890;9.190;2024-03-23T13:11:27;15.10;57.80
3770;DHT22;1900;48.890;9.190;2024-03-23T13:13:53;15.40;58.30
3770;DHT22;1900;48.890;9.190;2024-03-23T13:16:19;15.60;58.60
3770;DHT22;1900;48.890;9.190;2024-03-23T13:18:45;15.80;58.60
3770;DHT22;1900;48.890;9.190;2024-03-23T13:21:11;16.00;58.70
3770;DHT22;1900;48.890;9.190;2024-03-23T13:23:36;16.20;58.50
3770;DHT22;1900;48.890;9.190;2024-03-23T13:26:03;16.30;58.30
3770;DHT22;1900;48.890;9.190;2024-03-23T13:28:29;16.50;58.20
3770;DHT22;1900;48.890;9.190;2024-03-23T13:30:56;16.60;58.40
3770;DHT22;1900;48.890;9.190;2024-03-23T13:33:22;16.80;58.20
3770;DHT22;1900;48.890;9.190;2024-03-23T13:35:55;17.00;58.50
3770;DHT22;1900;48.890;9.190;2024-03-23T13:38:22;17.10;58.40
3770;DHT22;1900;48.890;9.190;2024-03-23T13:40:57;17.30;58.60
3770;DHT22;1900;48.890;9.190;2024-03-23T13:43:24;17.40;58.60
3770;DHT22;1900;48.890;9.190;2024-03-23T13:45:59;17.60;59.00
3770;DHT22;1900;48.890;9.190;2024-03-23T13:48:26;17.70;57.90
3770;DHT22;1900;48.890;9.190;2024-03-23T13:50:59;17.80;57.80
3770;DHT22;1900;48.890;9.190;2024-03-23T13:53:25;17.80;57.50
3770;DHT22;1900;48.890;9.190;2024-03-23T13:55:51;17.80;57.10
3770;DHT22;1900;48.890;9.190;2024-03-23T13:58:17;17.70;56.00
3770;DHT22;1900;48.890;9.190;2024-03-23T14:00:43;17.60;54.90
3770;DHT22;1900;48.890;9.190;2024-03-23T14:03:12;17.40;54.20
3770;DHT22;1900;48.890;9.190;2024-03-23T14:05:39;17.20;53.50
3770;DHT22;1900;48.890;9.190;2024-03-23T14:08:09;16.80;52.80
3770;DHT22;1900;48.890;9.190;2024-03-23T14:10:35;16.50;52.20
3770;DHT22;1900;48.890;9.190;2024-03-23T14:13:04;16.20;51.80
3770;DHT22;1900;48.890;9.190;2024-03-23T14:15:30;15.80;51.20
3770;DHT22;1900;48.890;9.190;2024-03-23T14:17:57;15.40;50.90
3770;DHT22;1900;48.890;9.190;2024-03-23T14:20:23;15.10;51.10
3770;DHT22;1900;48.890;9.190;2024-03-23T14:22:49;14.90;51.40
3770;DHT22;1900;48.890;9.190;2024-03-23T14:25:15;14.70;51.60
3770;DHT22;1900;48.890;9.190;2024-03-23T14:27:48;14.60;51.90
3770;DHT22;1900;48.890;9.190;2024-03-23T14:30:14;14.40;52.00
3770;DHT22;1900;48.890;9.190;2024-03-23T14:32:40;14.20;51.90
3770;DHT22;1900;48.890;9.190;2024-03-23T14:35:06;14.10;52.00
3770;DHT22;1900;48.890;9.190;2024-03-23T14:37:34;14.10;52.40
3770;DHT22;1900;48.890;9.190;2024-03-23T14:39:59;14.10;53.10
3770;DHT22;1900;48.890;9.190;2024-03-23T14:42:25;14.10;53.70
3770;DHT22;1900;48.890;9.190;2024-03-23T14:44:51;14.20;54.40
3770;DHT22;1900;48.890;9.190;2024-03-23T14:47:18;14.30;54.90
3770;DHT22;1900;48.890;9.190;2024-03-23T14:49:47;14.40;55.30
3770;DHT22;1900;48.890;9.190;2024-03-23T14:52:17;14.60;55.80
3770;DHT22;1900;48.890;9.190;2024-03-23T14:54:44;14.80;56.20
3770;DHT22;1900;48.890;9.190;2024-03-23T14:57:09;14.90;56.40
3770;DHT22;1900;48.890;9.190;2024-03-23T14:59:35;15.10;56.60
3770;DHT22;1900;48.890;9.190;2024-03-23T15:02:06;15.20;56.40
3770;DHT22;1900;48.890;9.190;2024-03-23T15:04:32;15.30;55.90
3770;DHT22;1900;48.890;9.190;2024-03-23T15:06:58;15.30;55.50
3770;DHT22;1900;48.890;9.190;2024-03-23T15:09:24;15.30;55.20
3770;DHT22;1900;48.890;9.190;2024-03-23T15:11:50;15.30;55.00
3770;DHT22;1900;48.890;9.190;2024-03-23T15:14:15;15.30;54.70
3770;DHT22;1900;48.890;9.190;2024-03-23T15:16:41;15.20;54.10
3770;DHT22;1900;48.890;9.190;2024-03-23T15:19:09;15.20;54.10
3770;DHT22;1900;48.890;9.190;2024-03-23T15:21:35;15.10;54.30
3770;DHT22;1900;48.890;9.190;2024-03-23T15:24:01;15.20;54.60
3770;DHT22;1900;48.890;9.190;2024-03-23T15:26:27;15.20;55.00
3770;DHT22;1900;48.890;9.190;2024-03-23T15:28:52;15.30;55.40
3770;DHT22;1900;48.890;9.190;2024-03-23T15:31:24;15.50;55.70
3770;DHT22;1900;48.890;9.190;2024-03-23T15:33:50;15.60;55.70
3770;DHT22;1900;48.890;9.190;2024-03-23T15:36:17;15.70;55.50
3770;DHT22;1900;48.890;9.190;2024-03-23T15:38:43;15.70;55.40
3770;DHT22;1900;48.890;9.190;2024-03-23T15:41:09;15.80;55.90
3770;DHT22;1900;48.890;9.190;2024-03-23T15:43:35;15.90;55.50
3770;DHT22;1900;48.890;9.190;2024-03-23T15:46:02;15.80;54.80
3770;DHT22;1900;48.890;9.190;2024-03-23T15:48:29;15.80;54.30
3770;DHT22;1900;48.890;9.190;2024-03-23T15:50:56;15.70;53.90
3770;DHT22;1900;48.890;9.190;2024-03-23T15:53:24;15.50;53.40
3770;DHT22;1900;48.890;9.190;2024-03-23T15:56:00;15.40;53.10
3770;DHT22;1900;48.890;9.190;2024-03-23T15:58:27;15.30;52.90
3770;DHT22;1900;48.890;9.190;2024-03-23T16:01:07;15.10;52.70
3770;DHT22;1900;48.890;9.190;2024-03-23T16:03:39;14.90;52.70
3770;DHT22;1900;48.890;9.190;2024-03-23T16:06:06;14.80;52.90
3770;DHT22;1900;48.890;9.190;2024-03-23T16:08:33;14.70;53.00
3770;DHT22;1900;48.890;9.190;2024-03-23T16:11:06;14.60;53.00
3770;DHT22;1900;48.890;9.190;2024-03-23T16:13:35;14.50;52.90
3770;DHT22;1900;48.890;9.190;2024-03-23T16:16:02;14.50;53.00
3770;DHT22;1900;48.890;9.190;2024-03-23T16:18:29;14.40;53.10
3770;DHT22;1900;48.890;9.190;2024-03-23T16:21:05;14.30;53.10
3770;DHT22;1900;48.890;9.190;2024-03-23T16:23:35;14.30;53.10
3770;DHT22;1900;48.890;9.190;2024-03-23T16:26:04;14.20;53.00
3770;DHT22;1900;48.890;9.190;2024-03-23T16:28:32;14.20;53.10
3770;DHT22;1900;48.890;9.190;2024-03-23T16:31:02;14.20;53.10
3770;DHT22;1900;48.890;9.190;2024-03-23T16:33:29;14.20;53.10
3770;DHT22;1900;48.890;9.190;2024-03-23T16:36:03;14.10;53.10
3770;DHT22;1900;48.890;9.190;2024-03-23T16:38:36;14.10;53.10
3770;DHT22;1900;48.890;9.190;2024-03-23T16:41:03;14.10;53.00
3770;DHT22;1900;48.890;9.190;2024-03-23T16:43:30;14.00;52.80
3770;DHT22;1900;48.890;9.190;2024-03-23T16:46:01;14.00;52.80
3770;DHT22;1900;48.890;9.190;2024-03-23T16:48:28;13.90;52.70
3770;DHT22;1900;48.890;9.190;2024-03-23T16:50:56;13.80;52.50
3770;DHT22;1900;48.890;9.190;2024-03-23T16:53:22;13.80;52.40
3770;DHT22;1900;48.890;9.190;2024-03-23T16:56:01;13.70;52.20
3770;DHT22;1900;48.890;9.190;2024-03-23T16:58:28;13.60;51.90
3770;DHT22;1900;48.890;9.190;2024-03-23T17:00:55;13.50;51.80
3770;DHT22;1900;48.890;9.190;2024-03-23T17:03:23;13.50;51.90
3770;DHT22;1900;48.890;9.190;2024-03-23T17:05:49;13.40;51.90
3770;DHT22;1900;48.890;9.190;2024-03-23T17:08:16;13.30;51.80